sensor_id;sensor_type;location;lat;lon;timestamp;temperature;humidity
75451;DHT22;64029;48.244;9.188;2024-02-28T00:01:03;5.60;92.40
75451;DHT22;64029;48.244;9.188;2024-02-28T00:03:30;5.60;92.30
75451;DHT22;64029;48.244;9.188;2024-02-28T00:05:58;5.60;92.20
75451;DHT22;64029;48.244;9.188;2024-02-28T00:08:25;5.60;92.20
75451;DHT22;64029;48.244;9.188;2024-02-28T00:10:52;5.60;92.40
75451;DHT22;64029;48.244;9.188;2024-02-28T00:13:19;5.60;92.20
75451;DHT22;64029;48.244;9.188;2024-02-28T00:15:48;5.60;92.10
75451;DHT22;64029;48.244;9.188;2024-02-28T00:18:16;5.60;92.10
75451;DHT22;64029;48.244;9.188;2024-02-28T00:20:44;5.60;92.00
75451;DHT22;64029;48.244;9.188;2024-02-28T00:23:11;5.60;92.00
75451;DHT22;64029;48.244;9.188;2024-02-28T00:25:37;5.60;92.00
75451;DHT22;64029;48.244;9.188;2024-02-28T00:28:04;5.60;92.00
75451;DHT22;64029;48.244;9.188;2024-02-28T00:30:31;5.60;92.30
75451;DHT22;64029;48.244;9.188;2024-02-28T00:32:59;5.60;92.20
75451;DHT22;64029;48.244;9.188;2024-02-28T00:35:30;5.60;92.20
75451;DHT22;64029;48.244;9.188;2024-02-28T00:37:58;5.60;92.00
75451;DHT22;64029;48.244;9.188;2024-02-28T00:40:25;5.60;91.90
75451;DHT22;64029;48.244;9.188;2024-02-28T00:42:52;5.50;92.20
75451;DHT22;64029;48.244;9.188;2024-02-28T00:45:18;5.60;92.00
75451;DHT22;64029;48.244;9.188;2024-02-28T00:47:45;5.60;92.00
75451;DHT22;64029;48.244;9.188;2024-02-28T00:50:12;5.60;92.00
75451;DHT22;64029;48.244;9.188;2024-02-28T00:52:40;5.60;92.00
75451;DHT22;64029;48.244;9.188;2024-02-28T00:55:07;5.60;92.00
75451;DHT22;64029;48.244;9.188;2024-02-28T00:57:34;5.50;92.20
75451;DHT22;64029;48.244;9.188;2024-02-28T01:00:01;5.50;92.20
75451;DHT22;64029;48.244;9.188;2024-02-28T01:02:28;5.60;92.10
75451;DHT22;64029;48.244;9.188;2024-02-28T01:04:55;5.60;92.00
75451;DHT22;64029;48.244;9.188;2024-02-28T01:07:21;5.50;92.10
75451;DHT22;64029;48.244;9.188;2024-02-28T01:09:50;5.50;92.00
75451;DHT22;64029;48.244;9.188;2024-02-28T01:12:17;5.50;92.00
75451;DHT22;64029;48.244;9.188;2024-02-28T01:14:43;5.50;92.00
75451;DHT22;64029;48.244;9.188;2024-02-28T01:17:10;5.50;91.90
75451;DHT22;64029;48.244;9.188;2024-02-28T01:19:37;5.50;92.10
75451;DHT22;64029;48.244;9.188;2024-02-28T01:22:04;5.50;91.90
75451;DHT22;64029;48.244;9.188;2024-02-28T01:24:31;5.50;91.90
75451;DHT22;64029;48.244;9.188;2024-02-28T01:27:00;5.50;91.90
75451;DHT22;64029;48.244;9.188;2024-02-28T01:29:27;5.50;91.80
75451;DHT22;64029;48.244;9.188;2024-02-28T01:31:55;5.50;91.80
75451;DHT22;64029;48.244;9.188;2024-02-28T01:34:22;5.50;91.80
75451;DHT22;64029;48.244;9.188;2024-02-28T01:36:49;5.50;91.80
75451;DHT22;64029;48.244;9.188;2024-02-28T01:39:16;5.40;91.80
75451;DHT22;64029;48.244;9.188;2024-02-28T01:41:51;5.40;91.70
75451;DHT22;64029;48.244;9.188;2024-02-28T01:44:19;5.40;91.70
75451;DHT22;64029;48.244;9.188;2024-02-28T01:46:46;5.40;91.70
75451;DHT22;64029;48.244;9.188;2024-02-28T01:49:13;5.40;91.70
75451;DHT22;64029;48.244;9.188;2024-02-28T01:51:41;5.40;91.60
75451;DHT22;64029;48.244;9.188;2024-02-28T01:54:08;5.40;91.70
75451;DHT22;64029;48.244;9.188;2024-02-28T01:56:35;5.30;91.80
75451;DHT22;64029;48.244;9.188;2024-02-28T01:59:10;5.30;91.80
75451;DHT22;64029;48.244;9.188;2024-02-28T02:01:53;5.30;91.80
75451;DHT22;64029;48.244;9.188;2024-02-28T02:04:20;5.30;91.70
75451;DHT22;64029;48.244;9.188;2024-02-28T02:06:48;5.30;91.60
75451;DHT22;64029;48.244;9.188;2024-02-28T02:09:15;5.30;91.60
75451;DHT22;64029;48.244;9.188;2024-02-28T02:11:42;5.30;91.60
75451;DHT22;64029;48.244;9.188;2024-02-28T02:14:11;5.30;91.60
75451;DHT22;64029;48.244;9.188;2024-02-28T02:16:37;5.30;91.60
75451;DHT22;64029;48.244;9.188;2024-02-28T02:19:07;5.30;91.60
75451;DHT22;64029;48.244;9.188;2024-02-28T02:21:43;5.30;91.60
75451;DHT22;64029;48.244;9.188;2024-02-28T02:24:13;5.20;91.50
75451;DHT22;64029;48.244;9.188;2024-02-28T02:26:40;5.30;91.60
75451;DHT22;64029;48.244;9.188;2024-02-28T02:29:09;5.20;91.50
75451;DHT22;64029;48.244;9.188;2024-02-28T02:31:36;5.30;91.60
75451;DHT22;64029;48.244;9.188;2024-02-28T02:34:03;5.20;91.50
75451;DHT22;64029;48.244;9.188;2024-02-28T02:36:30;5.20;91.50
75451;DHT22;64029;48.244;9.188;2024-02-28T02:38:57;5.20;91.50
75451;DHT22;64029;48.244;9.188;2024-02-28T02:41:25;5.20;91.50
75451;DHT22;64029;48.244;9.188;2024-02-28T02:43:52;5.20;91.50
75451;DHT22;64029;48.244;9.188;2024-02-28T02:46:19;5.20;91.60
75451;DHT22;64029;48.244;9.188;2024-02-28T02:48:46;5.10;91.60
75451;DHT22;64029;48.244;9.188;2024-02-28T02:51:12;5.20;91.60
75451;DHT22;64029;48.244;9.188;2024-02-28T02:53:39;5.10;91.60
75451;DHT22;64029;48.244;9.188;2024-02-28T02:56:07;5.20;91.60
75451;DHT22;64029;48.244;9.188;2024-02-28T02:58:35;5.10;91.60
75451;DHT22;64029;48.244;9.188;2024-02-28T03:01:02;5.20;91.80
75451;DHT22;64029;48.244;9.188;2024-02-28T03:03:29;5.10;91.40
75451;DHT22;64029;48.244;9.188;2024-02-28T03:05:56;5.10;91.50
75451;DHT22;64029;48.244;9.188;2024-02-28T03:08:23;5.20;91.50
75451;DHT22;64029;48.244;9.188;2024-02-28T03:10:49;5.10;91.70
75451;DHT22;64029;48.244;9.188;2024-02-28T03:13:16;5.10;91.40
75451;DHT22;64029;48.244;9.188;2024-02-28T03:15:45;5.10;91.50
75451;DHT22;64029;48.244;9.188;2024-02-28T03:18:12;5.10;91.50
75451;DHT22;64029;48.244;9.188;2024-02-28T03:20:39;5.10;91.40
75451;DHT22;64029;48.244;9.188;2024-02-28T03:23:05;5.10;91.40
75451;DHT22;64029;48.244;9.188;2024-02-28T03:25:32;5.10;91.40
75451;DHT22;64029;48.244;9.188;2024-02-28T03:28:00;5.10;91.40
75451;DHT22;64029;48.244;9.188;2024-02-28T03:30:27;5.00;91.40
75451;DHT22;64029;48.244;9.188;2024-02-28T03:32:55;5.00;91.40
75451;DHT22;64029;48.244;9.188;2024-02-28T03:35:22;5.00;91.40
75451;DHT22;64029;48.244;9.188;2024-02-28T03:37:49;5.00;91.40
75451;DHT22;64029;48.244;9.188;2024-02-28T03:40:16;4.90;91.30
75451;DHT22;64029;48.244;9.188;2024-02-28T03:42:42;4.90;91.40
75451;DHT22;64029;48.244;9.188;2024-02-28T03:45:09;4.90;91.30
75451;DHT22;64029;48.244;9.188;2024-02-28T03:47:36;4.90;91.30
75451;DHT22;64029;48.244;9.188;2024-02-28T03:50:05;4.90;91.30
75451;DHT22;64029;48.244;9.188;2024-02-28T03:52:32;4.90;91.20
75451;DHT22;64029;48.244;9.188;2024-02-28T03:54:59;4.80;91.20
75451;DHT22;64029;48.244;9.188;2024-02-28T03:57:26;4.80;91.20
75451;DHT22;64029;48.244;9.188;2024-02-28T03:59:52;4.80;91.20
75451;DHT22;64029;48.244;9.188;2024-02-28T04:02:19;4.80;91.20
75451;DHT22;64029;48.244;9.188;2024-02-28T04:04:46;4.80;91.20
75451;DHT22;64029;48.244;9.188;2024-02-28T04:07:14;4.80;91.10
75451;DHT22;64029;48.244;9.188;2024-02-28T04:09:41;4.80;91.10
75451;DHT22;64029;48.244;9.188;2024-02-28T04:12:08;4.70;91.00
75451;DHT22;64029;48.244;9.188;2024-02-28T04:14:37;4.70;91.00
75451;DHT22;64029;48.244;9.188;2024-02-28T04:17:04;4.70;91.00
75451;DHT22;64029;48.244;9.188;2024-02-28T04:19:32;4.70;91.00
75451;DHT22;64029;48.244;9.188;2024-02-28T04:22:01;4.70;90.90
75451;DHT22;64029;48.244;9.188;2024-02-28T04:24:30;4.70;90.90
75451;DHT22;64029;48.244;9.188;2024-02-28T04:26:57;4.70;90.80
75451;DHT22;64029;48.244;9.188;2024-02-28T04:29:25;4.60;90.70
75451;DHT22;64029;48.244;9.188;2024-02-28T04:31:52;4.60;90.70
75451;DHT22;64029;48.244;9.188;2024-02-28T04:34:18;4.50;90.60
75451;DHT22;64029;48.244;9.188;2024-02-28T04:36:45;4.50;90.70
75451;DHT22;64029;48.244;9.188;2024-02-28T04:39:12;4.50;90.60
75451;DHT22;64029;48.244;9.188;2024-02-28T04:41:40;4.50;90.60
75451;DHT22;64029;48.244;9.188;2024-02-28T04:44:07;4.50;90.50
75451;DHT22;64029;48.244;9.188;2024-02-28T04:46:34;4.40;90.40
75451;DHT22;64029;48.244;9.188;2024-02-28T04:49:01;4.40;90.50
75451;DHT22;64029;48.244;9.188;2024-02-28T04:51:27;4.40;90.50
75451;DHT22;64029;48.244;9.188;2024-02-28T04:53:54;4.30;90.50
75451;DHT22;64029;48.244;9.188;2024-02-28T04:56:21;4.30;90.50
75451;DHT22;64029;48.244;9.188;2024-02-28T04:58:50;4.30;90.50
75451;DHT22;64029;48.244;9.188;2024-02-28T05:01:17;4.20;90.50
75451;DHT22;64029;48.244;9.188;2024-02-28T05:03:44;4.20;90.50
75451;DHT22;64029;48.244;9.188;2024-02-28T05:06:10;4.20;90.60
75451;DHT22;64029;48.244;9.188;2024-02-28T05:08:37;4.20;90.60
75451;DHT22;64029;48.244;9.188;2024-02-28T05:11:04;4.20;90.60
75451;DHT22;64029;48.244;9.188;2024-02-28T05:13:31;4.10;90.60
75451;DHT22;64029;48.244;9.188;2024-02-28T05:15:59;4.10;90.60
75451;DHT22;64029;48.244;9.188;2024-02-28T05:18:26;4.10;90.60
75451;DHT22;64029;48.244;9.188;2024-02-28T05:20:53;4.10;90.60
75451;DHT22;64029;48.244;9.188;2024-02-28T05:23:20;4.10;90.60
75451;DHT22;64029;48.244;9.188;2024-02-28T05:25:47;4.00;90.50
75451;DHT22;64029;48.244;9.188;2024-02-28T05:28:14;4.00;90.50
75451;DHT22;64029;48.244;9.188;2024-02-28T05:30:41;3.90;90.50
75451;DHT22;64029;48.244;9.188;2024-02-28T05:33:09;3.90;90.50
75451;DHT22;64029;48.244;9.188;2024-02-28T05:35:37;3.90;90.50
75451;DHT22;64029;48.244;9.188;2024-02-28T05:38:04;3.90;90.50
75451;DHT22;64029;48.244;9.188;2024-02-28T05:40:30;3.80;90.40
75451;DHT22;64029;48.244;9.188;2024-02-28T05:42:57;3.80;90.40
75451;DHT22;64029;48.244;9.188;2024-02-28T05:45:24;3.80;90.50
75451;DHT22;64029;48.244;9.188;2024-02-28T05:47:51;3.80;90.50
75451;DHT22;64029;48.244;9.188;2024-02-28T05:50:19;3.80;90.40
75451;DHT22;64029;48.244;9.188;2024-02-28T05:52:46;3.70;90.30
75451;DHT22;64029;48.244;9.188;2024-02-28T05:55:12;3.70;90.30
75451;DHT22;64029;48.244;9.188;2024-02-28T05:57:39;3.70;90.30
75451;DHT22;64029;48.244;9.188;2024-02-28T06:00:07;3.70;90.30
75451;DHT22;64029;48.244;9.188;2024-02-28T06:02:35;3.70;90.20
75451;DHT22;64029;48.244;9.188;2024-02-28T06:05:03;3.70;90.20
75451;DHT22;64029;48.244;9.188;2024-02-28T06:07:31;3.70;90.10
75451;DHT22;64029;48.244;9.188;2024-02-28T06:09:58;3.70;90.70
75451;DHT22;64029;48.244;9.188;2024-02-28T06:12:25;3.70;90.80
75451;DHT22;64029;48.244;9.188;2024-02-28T06:14:52;3.70;90.70
75451;DHT22;64029;48.244;9.188;2024-02-28T06:17:20;3.80;90.60
75451;DHT22;64029;48.244;9.188;2024-02-28T06:19:47;3.70;91.20
75451;DHT22;64029;48.244;9.188;2024-02-28T06:22:13;3.80;91.00
75451;DHT22;64029;48.244;9.188;2024-02-28T06:24:42;3.80;91.00
75451;DHT22;64029;48.244;9.188;2024-02-28T06:27:08;3.80;91.20
75451;DHT22;64029;48.244;9.188;2024-02-28T06:29:38;3.80;91.10
75451;DHT22;64029;48.244;9.188;2024-02-28T06:32:05;3.90;91.20
75451;DHT22;64029;48.244;9.188;2024-02-28T06:34:32;3.90;92.40
75451;DHT22;64029;48.244;9.188;2024-02-28T06:36:58;3.90;91.40
75451;DHT22;64029;48.244;9.188;2024-02-28T06:39:25;3.90;91.50
75451;DHT22;64029;48.244;9.188;2024-02-28T06:41:53;3.90;91.50
75451;DHT22;64029;48.244;9.188;2024-02-28T06:44:20;3.90;91.30
75451;DHT22;64029;48.244;9.188;2024-02-28T06:46:47;3.90;91.20
75451;DHT22;64029;48.244;9.188;2024-02-28T06:49:14;3.90;91.60
75451;DHT22;64029;48.244;9.188;2024-02-28T06:51:42;3.90;91.30
75451;DHT22;64029;48.244;9.188;2024-02-28T06:54:09;4.00;91.30
75451;DHT22;64029;48.244;9.188;2024-02-28T06:56:36;4.00;91.50
75451;DHT22;64029;48.244;9.188;2024-02-28T06:59:05;4.00;91.50
75451;DHT22;64029;48.244;9.188;2024-02-28T07:01:32;4.00;91.40
75451;DHT22;64029;48.244;9.188;2024-02-28T07:03:59;4.00;91.40
75451;DHT22;64029;48.244;9.188;2024-02-28T07:06:26;4.00;91.50
75451;DHT22;64029;48.244;9.188;2024-02-28T07:08:53;4.00;91.40
75451;DHT22;64029;48.244;9.188;2024-02-28T07:11:19;4.00;91.30
75451;DHT22;64029;48.244;9.188;2024-02-28T07:13:47;4.00;91.30
75451;DHT22;64029;48.244;9.188;2024-02-28T07:16:15;4.00;91.50
75451;DHT22;64029;48.244;9.188;2024-02-28T07:18:42;4.10;91.40
75451;DHT22;64029;48.244;9.188;2024-02-28T07:21:09;4.10;91.40
75451;DHT22;64029;48.244;9.188;2024-02-28T07:23:39;4.00;91.50
75451;DHT22;64029;48.244;9.188;2024-02-28T07:26:05;4.00;91.50
75451;DHT22;64029;48.244;9.188;2024-02-28T07:28:32;4.10;91.50
75451;DHT22;64029;48.244;9.188;2024-02-28T07:30:59;4.10;91.40
75451;DHT22;64029;48.244;9.188;2024-02-28T07:33:27;4.10;91.40
75451;DHT22;64029;48.244;9.188;2024-02-28T07:35:54;4.10;91.40
75451;DHT22;64029;48.244;9.188;2024-02-28T07:38:26;4.10;91.40
75451;DHT22;64029;48.244;9.188;2024-02-28T07:40:53;4.10;91.50
75451;DHT22;64029;48.244;9.188;2024-02-28T07:43:20;4.10;91.60
75451;DHT22;64029;48.244;9.188;2024-02-28T07:45:47;4.10;91.50
75451;DHT22;64029;48.244;9.188;2024-02-28T07:48:13;4.10;91.50
75451;DHT22;64029;48.244;9.188;2024-02-28T07:50:44;4.10;91.50
75451;DHT22;64029;48.244;9.188;2024-02-28T07:53:11;4.10;91.40
75451;DHT22;64029;48.244;9.188;2024-02-28T07:55:38;4.10;91.40
75451;DHT22;64029;48.244;9.188;2024-02-28T07:58:05;4.10;91.40
75451;DHT22;64029;48.244;9.188;2024-02-28T08:00:32;4.10;91.50
75451;DHT22;64029;48.244;9.188;2024-02-28T08:02:59;4.10;91.40
75451;DHT22;64029;48.244;9.188;2024-02-28T08:05:26;4.20;91.50
75451;DHT22;64029;48.244;9.188;2024-02-28T08:07:54;4.20;91.50
75451;DHT22;64029;48.244;9.188;2024-02-28T08:10:21;4.20;91.50
75451;DHT22;64029;48.244;9.188;2024-02-28T08:12:48;4.20;91.60
75451;DHT22;64029;48.244;9.188;2024-02-28T08:15:15;4.20;91.60
75451;DHT22;64029;48.244;9.188;2024-02-28T08:17:42;4.30;91.50
75451;DHT22;64029;48.244;9.188;2024-02-28T08:20:09;4.30;91.50
75451;DHT22;64029;48.244;9.188;2024-02-28T08:22:36;4.30;91.60
75451;DHT22;64029;48.244;9.188;2024-02-28T08:25:04;4.30;91.50
75451;DHT22;64029;48.244;9.188;2024-02-28T08:27:32;4.40;91.90
75451;DHT22;64029;48.244;9.188;2024-02-28T08:30:00;4.40;92.00
75451;DHT22;64029;48.244;9.188;2024-02-28T08:32:27;4.40;92.10
75451;DHT22;64029;48.244;9.188;2024-02-28T08:34:53;4.50;92.80
75451;DHT22;64029;48.244;9.188;2024-02-28T08:37:21;4.50;92.20
75451;DHT22;64029;48.244;9.188;2024-02-28T08:39:48;4.60;92.10
75451;DHT22;64029;48.244;9.188;2024-02-28T08:42:16;4.60;92.10
75451;DHT22;64029;48.244;9.188;2024-02-28T08:44:43;4.60;92.10
75451;DHT22;64029;48.244;9.188;2024-02-28T08:47:13;4.60;92.10
75451;DHT22;64029;48.244;9.188;2024-02-28T08:49:40;4.70;92.10
75451;DHT22;64029;48.244;9.188;2024-02-28T08:52:07;4.70;92.10
75451;DHT22;64029;48.244;9.188;2024-02-28T08:54:34;4.70;92.00
75451;DHT22;64029;48.244;9.188;2024-02-28T08:57:01;4.80;92.00
75451;DHT22;64029;48.244;9.188;2024-02-28T08:59:30;4.80;92.00
75451;DHT22;64029;48.244;9.188;2024-02-28T09:01:57;4.90;92.00
75451;DHT22;64029;48.244;9.188;2024-02-28T09:04:24;4.90;92.30
75451;DHT22;64029;48.244;9.188;2024-02-28T09:06:50;4.90;92.00
75451;DHT22;64029;48.244;9.188;2024-02-28T09:09:18;5.00;92.00
75451;DHT22;64029;48.244;9.188;2024-02-28T09:11:45;5.00;92.00
75451;DHT22;64029;48.244;9.188;2024-02-28T09:14:12;5.10;91.90
75451;DHT22;64029;48.244;9.188;2024-02-28T09:16:40;5.10;91.90
75451;DHT22;64029;48.244;9.188;2024-02-28T09:19:07;5.10;91.80
75451;DHT22;64029;48.244;9.188;2024-02-28T09:21:34;5.10;91.80
75451;DHT22;64029;48.244;9.188;2024-02-28T09:24:01;5.20;91.90
75451;DHT22;64029;48.244;9.188;2024-02-28T09:26:27;5.20;91.80
75451;DHT22;64029;48.244;9.188;2024-02-28T09:28:54;5.20;91.80
75451;DHT22;64029;48.244;9.188;2024-02-28T09:31:21;5.30;91.80
75451;DHT22;64029;48.244;9.188;2024-02-28T09:33:49;5.30;91.80
75451;DHT22;64029;48.244;9.188;2024-02-28T09:36:16;5.30;91.70
75451;DHT22;64029;48.244;9.188;2024-02-28T09:38:43;5.30;91.60
75451;DHT22;64029;48.244;9.188;2024-02-28T09:41:14;5.30;91.60
75451;DHT22;64029;48.244;9.188;2024-02-28T09:43:41;5.40;91.80
75451;DHT22;64029;48.244;9.188;2024-02-28T09:46:08;5.40;91.80
75451;DHT22;64029;48.244;9.188;2024-02-28T09:48:38;5.40;91.60
75451;DHT22;64029;48.244;9.188;2024-02-28T09:51:08;5.50;91.30
75451;DHT22;64029;48.244;9.188;2024-02-28T09:53:36;5.50;91.60
75451;DHT22;64029;48.244;9.188;2024-02-28T09:56:05;5.50;91.60
75451;DHT22;64029;48.244;9.188;2024-02-28T09:58:33;5.60;91.70
75451;DHT22;64029;48.244;9.188;2024-02-28T10:01:02;5.60;91.40
75451;DHT22;64029;48.244;9.188;2024-02-28T10:03:30;5.60;91.40
75451;DHT22;64029;48.244;9.188;2024-02-28T10:05:57;5.70;91.60
75451;DHT22;64029;48.244;9.188;2024-02-28T10:08:25;5.70;91.60
75451;DHT22;64029;48.244;9.188;2024-02-28T10:10:52;5.70;91.50
75451;DHT22;64029;48.244;9.188;2024-02-28T10:13:21;5.80;91.50
75451;DHT22;64029;48.244;9.188;2024-02-28T10:15:49;5.80;91.00
75451;DHT22;64029;48.244;9.188;2024-02-28T10:18:16;5.80;91.20
75451;DHT22;64029;48.244;9.188;2024-02-28T10:20:43;5.90;91.40
75451;DHT22;64029;48.244;9.188;2024-02-28T10:23:10;5.90;91.20
75451;DHT22;64029;48.244;9.188;2024-02-28T10:25:45;5.90;91.00
75451;DHT22;64029;48.244;9.188;2024-02-28T10:28:13;5.90;91.20
75451;DHT22;64029;48.244;9.188;2024-02-28T10:30:41;5.90;91.30
75451;DHT22;64029;48.244;9.188;2024-02-28T10:33:11;5.90;91.00
75451;DHT22;64029;48.244;9.188;2024-02-28T10:35:39;6.00;91.30
75451;DHT22;64029;48.244;9.188;2024-02-28T10:38:10;6.10;90.60
75451;DHT22;64029;48.244;9.188;2024-02-28T10:40:37;6.00;90.50
75451;DHT22;64029;48.244;9.188;2024-02-28T10:43:08;6.10;91.10
75451;DHT22;64029;48.244;9.188;2024-02-28T10:45:36;6.10;90.00
75451;DHT22;64029;48.244;9.188;2024-02-28T10:48:04;6.10;90.60
75451;DHT22;64029;48.244;9.188;2024-02-28T10:50:31;6.10;90.00
75451;DHT22;64029;48.244;9.188;2024-02-28T10:53:01;6.10;90.50
75451;DHT22;64029;48.244;9.188;2024-02-28T10:55:33;6.20;90.90
75451;DHT22;64029;48.244;9.188;2024-02-28T10:58:03;6.20;90.50
75451;DHT22;64029;48.244;9.188;2024-02-28T11:00:31;6.20;90.10
75451;DHT22;64029;48.244;9.188;2024-02-28T11:02:59;6.30;90.30
75451;DHT22;64029;48.244;9.188;2024-02-28T11:05:35;6.30;90.20
75451;DHT22;64029;48.244;9.188;2024-02-28T11:08:03;6.30;90.50
75451;DHT22;64029;48.244;9.188;2024-02-28T11:10:31;6.30;90.30
75451;DHT22;64029;48.244;9.188;2024-02-28T11:12:58;6.40;90.40
75451;DHT22;64029;48.244;9.188;2024-02-28T11:15:25;6.40;90.20
75451;DHT22;64029;48.244;9.188;2024-02-28T11:17:54;6.50;90.60
75451;DHT22;64029;48.244;9.188;2024-02-28T11:20:21;6.50;90.10
75451;DHT22;64029;48.244;9.188;2024-02-28T11:22:48;6.50;90.20
75451;DHT22;64029;48.244;9.188;2024-02-28T11:25:23;6.60;90.00
75451;DHT22;64029;48.244;9.188;2024-02-28T11:27:50;6.60;89.90
75451;DHT22;64029;48.244;9.188;2024-02-28T11:30:17;6.70;89.80
75451;DHT22;64029;48.244;9.188;2024-02-28T11:32:44;6.70;89.60
75451;DHT22;64029;48.244;9.188;2024-02-28T11:35:13;6.70;89.70
75451;DHT22;64029;48.244;9.188;2024-02-28T11:37:39;6.70;88.80
75451;DHT22;64029;48.244;9.188;2024-02-28T11:40:07;6.80;88.70
75451;DHT22;64029;48.244;9.188;2024-02-28T11:42:35;6.80;89.00
75451;DHT22;64029;48.244;9.188;2024-02-28T11:45:03;6.90;87.70
75451;DHT22;64029;48.244;9.188;2024-02-28T11:47:31;6.90;88.70
75451;DHT22;64029;48.244;9.188;2024-02-28T11:49:58;6.90;89.50
75451;DHT22;64029;48.244;9.188;2024-02-28T11:52:27;7.00;89.90
75451;DHT22;64029;48.244;9.188;2024-02-28T11:54:55;7.10;88.20
75451;DHT22;64029;48.244;9.188;2024-02-28T11:57:22;7.10;88.80
75451;DHT22;64029;48.244;9.188;2024-02-28T11:59:49;7.10;87.60
75451;DHT22;64029;48.244;9.188;2024-02-28T12:02:17;7.20;86.70
75451;DHT22;64029;48.244;9.188;2024-02-28T12:04:45;7.30;85.60
75451;DHT22;64029;48.244;9.188;2024-02-28T12:07:15;7.20;85.70
75451;DHT22;64029;48.244;9.188;2024-02-28T12:09:43;7.20;85.30
75451;DHT22;64029;48.244;9.188;2024-02-28T12:12:12;7.20;86.30
75451;DHT22;64029;48.244;9.188;2024-02-28T12:14:38;7.30;86.00
75451;DHT22;64029;48.244;9.188;2024-02-28T12:17:06;7.30;86.70
75451;DHT22;64029;48.244;9.188;2024-02-28T12:19:35;7.30;85.50
75451;DHT22;64029;48.244;9.188;2024-02-28T12:22:02;7.40;84.60
75451;DHT22;64029;48.244;9.188;2024-02-28T12:24:29;7.40;86.10
75451;DHT22;64029;48.244;9.188;2024-02-28T12:26:57;7.40;86.30
75451;DHT22;64029;48.244;9.188;2024-02-28T12:29:24;7.40;84.70
75451;DHT22;64029;48.244;9.188;2024-02-28T12:31:51;7.50;85.60
75451;DHT22;64029;48.244;9.188;2024-02-28T12:34:18;7.50;84.80
75451;DHT22;64029;48.244;9.188;2024-02-28T12:36:45;7.50;85.40
75451;DHT22;64029;48.244;9.188;2024-02-28T12:39:12;7.50;86.70
75451;DHT22;64029;48.244;9.188;2024-02-28T12:41:39;7.60;85.90
75451;DHT22;64029;48.244;9.188;2024-02-28T12:44:07;7.50;85.40
75451;DHT22;64029;48.244;9.188;2024-02-28T12:46:36;7.60;83.90
75451;DHT22;64029;48.244;9.188;2024-02-28T12:49:03;7.60;84.70
75451;DHT22;64029;48.244;9.188;2024-02-28T12:51:38;7.60;83.70
75451;DHT22;64029;48.244;9.188;2024-02-28T12:54:06;7.60;83.10
75451;DHT22;64029;48.244;9.188;2024-02-28T12:56:33;7.60;83.10
75451;DHT22;64029;48.244;9.188;2024-02-28T12:59:00;7.70;83.10
75451;DHT22;64029;48.244;9.188;2024-02-28T13:01:28;7.70;83.40
75451;DHT22;64029;48.244;9.188;2024-02-28T13:03:55;7.80;83.90
75451;DHT22;64029;48.244;9.188;2024-02-28T13:06:22;7.80;83.60
75451;DHT22;64029;48.244;9.188;2024-02-28T13:08:49;7.80;82.00
75451;DHT22;64029;48.244;9.188;2024-02-28T13:11:18;7.80;83.90
75451;DHT22;64029;48.244;9.188;2024-02-28T13:13:46;7.80;81.90
75451;DHT22;64029;48.244;9.188;2024-02-28T13:16:12;7.80;82.40
75451;DHT22;64029;48.244;9.188;2024-02-28T13:18:41;7.90;83.10
75451;DHT22;64029;48.244;9.188;2024-02-28T13:21:08;7.80;82.70
75451;DHT22;64029;48.244;9.188;2024-02-28T13:23:34;7.90;83.80
75451;DHT22;64029;48.244;9.188;2024-02-28T13:26:03;7.70;81.10
75451;DHT22;64029;48.244;9.188;2024-02-28T13:28:31;7.70;83.20
75451;DHT22;64029;48.244;9.188;2024-02-28T13:30:59;7.80;84.60
75451;DHT22;64029;48.244;9.188;2024-02-28T13:33:26;7.70;82.40
75451;DHT22;64029;48.244;9.188;2024-02-28T13:35:55;7.80;84.90
75451;DHT22;64029;48.244;9.188;2024-02-28T13:38:21;7.80;84.10
75451;DHT22;64029;48.244;9.188;2024-02-28T13:40:49;7.80;83.60
75451;DHT22;64029;48.244;9.188;2024-02-28T13:43:16;7.80;83.40
75451;DHT22;64029;48.244;9.188;2024-02-28T13:45:47;7.80;84.00
75451;DHT22;64029;48.244;9.188;2024-02-28T13:48:16;7.70;83.40
75451;DHT22;64029;48.244;9.188;2024-02-28T13:50:44;7.70;82.90
75451;DHT22;64029;48.244;9.188;2024-02-28T13:53:12;7.70;82.00
75451;DHT22;64029;48.244;9.188;2024-02-28T13:55:40;7.70;84.00
75451;DHT22;64029;48.244;9.188;2024-02-28T13:58:08;7.70;83.80
75451;DHT22;64029;48.244;9.188;2024-02-28T14:00:36;7.80;84.40
75451;DHT22;64029;48.244;9.188;2024-02-28T14:03:04;7.80;84.60
75451;DHT22;64029;48.244;9.188;2024-02-28T14:05:31;7.80;82.90
75451;DHT22;64029;48.244;9.188;2024-02-28T14:07:59;7.70;83.60
75451;DHT22;64029;48.244;9.188;2024-02-28T14:10:27;7.70;84.40
75451;DHT22;64029;48.244;9.188;2024-02-28T14:12:54;7.70;84.10
75451;DHT22;64029;48.244;9.188;2024-02-28T14:15:21;7.70;83.60
75451;DHT22;64029;48.244;9.188;2024-02-28T14:17:48;7.70;83.30
75451;DHT22;64029;48.244;9.188;2024-02-28T14:20:15;7.70;84.10
75451;DHT22;64029;48.244;9.188;2024-02-28T14:22:42;7.80;84.60
75451;DHT22;64029;48.244;9.188;2024-02-28T14:25:11;7.80;84.70
75451;DHT22;64029;48.244;9.188;2024-02-28T14:27:42;7.70;83.60
75451;DHT22;64029;48.244;9.188;2024-02-28T14:30:11;7.70;83.20
75451;DHT22;64029;48.244;9.188;2024-02-28T14:32:39;7.60;82.70
75451;DHT22;64029;48.244;9.188;2024-02-28T14:35:07;7.70;84.60
75451;DHT22;64029;48.244;9.188;2024-02-28T14:37:35;7.60;83.70
75451;DHT22;64029;48.244;9.188;2024-02-28T14:40:03;7.70;84.70
75451;DHT22;64029;48.244;9.188;2024-02-28T14:42:35;7.70;84.60
75451;DHT22;64029;48.244;9.188;2024-02-28T14:45:04;7.70;84.20
75451;DHT22;64029;48.244;9.188;2024-02-28T14:47:31;7.60;84.50
75451;DHT22;64029;48.244;9.188;2024-02-28T14:49:59;7.60;84.80
75451;DHT22;64029;48.244;9.188;2024-02-28T14:52:26;7.50;83.40
75451;DHT22;64029;48.244;9.188;2024-02-28T14:54:53;7.60;84.40
75451;DHT22;64029;48.244;9.188;2024-02-28T14:57:20;7.50;83.50
75451;DHT22;64029;48.244;9.188;2024-02-28T14:59:47;7.40;82.30
75451;DHT22;64029;48.244;9.188;2024-02-28T15:02:15;7.40;83.10
75451;DHT22;64029;48.244;9.188;2024-02-28T15:04:42;7.40;83.70
75451;DHT22;64029;48.244;9.188;2024-02-28T15:07:09;7.50;84.20
75451;DHT22;64029;48.244;9.188;2024-02-28T15:09:35;7.50;84.30
75451;DHT22;64029;48.244;9.188;2024-02-28T15:12:03;7.50;84.30
75451;DHT22;64029;48.244;9.188;2024-02-28T15:14:30;7.60;85.40
75451;DHT22;64029;48.244;9.188;2024-02-28T15:17:01;7.60;84.20
75451;DHT22;64029;48.244;9.188;2024-02-28T15:19:29;7.60;84.40
75451;DHT22;64029;48.244;9.188;2024-02-28T15:21:56;7.50;84.20
75451;DHT22;64029;48.244;9.188;2024-02-28T15:24:24;7.40;82.90
75451;DHT22;64029;48.244;9.188;2024-02-28T15:26:52;7.40;83.70
75451;DHT22;64029;48.244;9.188;2024-02-28T15:29:19;7.40;83.30
75451;DHT22;64029;48.244;9.188;2024-02-28T15:31:47;7.40;84.50
75451;DHT22;64029;48.244;9.188;2024-02-28T15:34:14;7.50;84.70
75451;DHT22;64029;48.244;9.188;2024-02-28T15:36:42;7.40;83.90
75451;DHT22;64029;48.244;9.188;2024-02-28T15:39:09;7.40;83.60
75451;DHT22;64029;48.244;9.188;2024-02-28T15:41:36;7.40;84.40
75451;DHT22;64029;48.244;9.188;2024-02-28T15:44:03;7.40;84.30
75451;DHT22;64029;48.244;9.188;2024-02-28T15:46:30;7.30;83.80